Time;durP1;ratioP1;P1;durP2;ratioP2;P2;SDS_P1;SDS_P2;PMS_P1;PMS_P2;Temp;Humidity;BMP_temperature;BMP_pressure;BME280_temperature;BME280_humidity;BME280_pressure;Samples;Min_cycle;Max_cycle;Signal;HPM_P1;HPM_P2
2022/10/31 00:01:32;;;;;;;11.18;5.80;;;11.20;99.90;;;;;;5001671;28;20030;-68
2022/10/31 00:03:58;;;;;;;12.07;6.53;;;11.20;99.90;;;;;;4999472;28;20021;-68
2022/10/31 00:06:24;;;;;;;13.18;5.40;;;11.20;99.90;;;;;;5002443;28;20390;-68
2022/10/31 00:08:59;;;;;;;12.63;5.40;;;11.30;99.90;;;;;;5005242;28;20038;-68
2022/10/31 00:11:24;;;;;;;20.15;7.00;;;11.30;99.90;;;;;;5010651;28;20079;-68
2022/10/31 00:13:50;;;;;;;11.20;5.40;;;11.30;99.90;;;;;;5001814;28;20104;-68
2022/10/31 00:16:18;;;;;;;13.70;6.10;;;11.20;99.90;;;;;;4999689;28;20026;-68
2022/10/31 00:18:43;;;;;;;14.93;6.50;;;11.10;99.90;;;;;;5003905;28;20026;-67
2022/10/31 00:21:09;;;;;;;15.10;6.05;;;11.00;99.90;;;;;;5008194;28;20033;-68
2022/10/31 00:23:35;;;;;;;14.20;7.93;;;11.00;99.90;;;;;;5006624;28;20065;-68
2022/10/31 00:26:02;;;;;;;12.50;6.82;;;11.00;99.90;;;;;;5008848;28;20113;-68
2022/10/31 00:28:30;;;;;;;19.35;7.57;;;10.90;99.90;;;;;;5005258;28;20026;-68
2022/10/31 00:31:01;;;;;;;13.60;6.20;;;10.90;99.90;;;;;;5005955;28;20381;-69
2022/10/31 00:33:27;;;;;;;14.68;6.20;;;10.80;99.90;;;;;;5009559;28;20065;-68
2022/10/31 00:35:53;;;;;;;26.75;6.80;;;10.80;99.90;;;;;;5008745;28;20029;-68
2022/10/31 00:38:19;;;;;;;12.05;6.15;;;10.80;99.90;;;;;;5000567;28;20042;-68
2022/10/31 00:40:44;;;;;;;12.68;5.85;;;10.80;99.90;;;;;;5006078;28;20026;-68
2022/10/31 00:43:10;;;;;;;13.80;6.43;;;10.80;99.90;;;;;;5007606;28;20129;-68
2022/10/31 00:45:35;;;;;;;23.50;6.65;;;10.80;99.90;;;;;;5002198;28;20033;-68
2022/10/31 00:48:01;;;;;;;10.95;5.75;;;10.80;99.90;;;;;;4987124;28;20050;-67
2022/10/31 00:50:27;;;;;;;15.73;5.70;;;10.80;99.90;;;;;;5002691;28;20113;-67
2022/10/31 00:52:52;;;;;;;12.95;6.68;;;10.80;99.90;;;;;;4999056;28;20428;-67
2022/10/31 00:55:18;;;;;;;20.33;6.95;;;10.80;99.90;;;;;;4999392;28;20045;-67
2022/10/31 00:57:47;;;;;;;10.02;5.45;;;10.80;99.90;;;;;;5002265;28;20405;-68
2022/10/31 01:00:13;;;;;;;11.75;6.50;;;10.80;99.90;;;;;;5000141;28;20023;-67
2022/10/31 01:02:38;;;;;;;18.70;7.05;;;10.80;99.90;;;;;;5001894;28;20037;-67
2022/10/31 01:05:04;;;;;;;17.42;6.35;;;10.80;99.90;;;;;;5000308;28;20026;-68
2022/10/31 01:07:30;;;;;;;14.38;5.85;;;10.80;99.90;;;;;;5016344;28;20073;-68
2022/10/31 01:09:55;;;;;;;22.10;6.78;;;10.80;99.90;;;;;;5005054;28;20046;-68
2022/10/31 01:12:21;;;;;;;17.10;7.18;;;10.80;99.90;;;;;;4984090;28;20108;-68
2022/10/31 01:14:46;;;;;;;11.90;6.07;;;10.80;99.90;;;;;;4997366;28;20442;-67
2022/10/31 01:17:13;;;;;;;13.18;7.65;;;10.90;99.90;;;;;;5008421;28;20033;-68
2022/10/31 01:19:38;;;;;;;10.65;5.65;;;10.80;99.90;;;;;;5000346;28;20022;-67
2022/10/31 01:22:04;;;;;;;16.90;6.63;;;10.80;99.90;;;;;;5006773;28;20032;-67
2022/10/31 01:24:30;;;;;;;18.83;6.30;;;10.90;99.90;;;;;;5008424;28;20049;-68
2022/10/31 01:26:55;;;;;;;17.48;6.60;;;11.00;99.90;;;;;;5002042;28;20607;-68
2022/10/31 01:29:21;;;;;;;11.70;5.72;;;11.10;99.90;;;;;;5005012;28;20092;-67
2022/10/31 01:31:46;;;;;;;14.30;5.43;;;11.20;99.90;;;;;;5005485;28;20030;-67
2022/10/31 01:34:14;;;;;;;15.00;6.22;;;11.20;99.90;;;;;;5002654;28;20388;-67
2022/10/31 01:36:40;;;;;;;16.95;5.68;;;11.10;99.90;;;;;;4997835;28;20018;-68
2022/10/31 01:39:11;;;;;;;11.52;5.13;;;11.00;99.90;;;;;;5004343;28;20034;-68
2022/10/31 01:41:41;;;;;;;14.13;5.85;;;10.90;99.90;;;;;;5000452;28;20036;-68
2022/10/31 01:44:16;;;;;;;12.65;6.85;;;10.80;99.90;;;;;;4994899;28;20114;-67
2022/10/31 01:47:27;;;;;;;14.18;6.18;;;10.70;99.90;;;;;;5005603;28;20034;-68
2022/10/31 01:49:56;;;;;;;16.27;5.60;;;10.70;99.90;;;;;;4983978;28;20046;-67
2022/10/31 01:52:32;;;;;;;20.35;6.88;;;10.60;99.90;;;;;;4987149;28;20042;-68
2022/10/31 01:55:05;;;;;;;21.67;6.22;;;10.60;99.90;;;;;;5002987;28;20037;-68
2022/10/31 01:57:33;;;;;;;18.65;6.40;;;10.60;99.90;;;;;;5003120;28;20460;-67
2022/10/31 02:00:03;;;;;;;20.48;6.22;;;10.50;99.90;;;;;;5009877;28;20033;-68
2022/10/31 02:02:31;;;;;;;14.68;6.97;;;10.50;99.90;;;;;;5003959;28;20033;-68
2022/10/31 02:04:59;;;;;;;14.57;6.22;;;10.50;99.90;;;;;;5005719;28;20033;-67
2022/10/31 02:07:33;;;;;;;14.73;6.78;;;10.60;99.90;;;;;;4998733;28;20030;-68
2022/10/31 02:10:01;;;;;;;12.00;7.00;;;10.70;99.90;;;;;;5003857;28;20533;-68
2022/10/31 02:12:29;;;;;;;14.20;6.68;;;10.70;99.90;;;;;;4999301;28;20080;-67
2022/10/31 02:14:55;;;;;;;14.27;7.93;;;10.70;99.90;;;;;;5008992;28;20026;-68
2022/10/31 02:17:21;;;;;;;15.20;6.85;;;10.80;99.90;;;;;;5010015;28;20037;-68
2022/10/31 02:20:08;;;;;;;15.23;6.32;;;10.80;99.90;;;;;;5006754;28;20115;-67
2022/10/31 02:23:02;;;;;;;19.77;6.68;;;10.80;99.90;;;;;;5000737;28;20106;-67
2022/10/31 02:25:40;;;;;;;;;;;10.70;99.90;;;;;;4999007;28;20048;-68
2022/10/31 02:28:29;;;;;;;15.57;6.97;;;10.70;99.90;;;;;;5003981;28;19910;-68
2022/10/31 02:31:14;;;;;;;12.32;6.60;;;10.60;99.90;;;;;;5002801;28;20030;-68
2022/10/31 02:34:09;;;;;;;16.23;6.43;;;10.60;99.90;;;;;;5007225;28;20038;-67
2022/10/31 02:36:56;;;;;;;11.68;6.22;;;10.60;99.90;;;;;;5002356;28;20041;-68
2022/10/31 02:39:36;;;;;;;13.50;6.13;;;10.60;99.90;;;;;;5007940;28;20121;-67
2022/10/31 02:42:25;;;;;;;18.77;6.38;;;10.60;99.90;;;;;;5005135;28;20022;-68
2022/10/31 02:45:03;;;;;;;15.50;6.18;;;10.70;99.90;;;;;;5010015;28;20128;-68
2022/10/31 02:47:34;;;;;;;13.60;6.00;;;10.60;99.90;;;;;;4993126;28;20057;-68
2022/10/31 02:50:06;;;;;;;11.45;6.47;;;10.60;99.90;;;;;;5005336;28;20118;-67
2022/10/31 02:52:34;;;;;;;13.35;5.43;;;10.60;99.90;;;;;;5002012;28;20025;-68
2022/10/31 02:55:33;;;;;;;11.25;6.38;;;10.60;99.90;;;;;;5009790;28;20104;-67
2022/10/31 02:58:11;;;;;;;17.65;6.28;;;10.60;99.90;;;;;;5000493;28;20363;-67
2022/10/31 03:01:14;;;;;;;19.40;7.20;;;10.50;99.90;;;;;;5010408;28;20022;-67
2022/10/31 03:04:06;;;;;;;15.63;6.00;;;10.50;99.90;;;;;;5004664;28;20022;-67
2022/10/31 03:06:49;;;;;;;12.10;6.43;;;10.40;99.90;;;;;;5003646;28;20030;-66
2022/10/31 03:09:17;;;;;;;18.20;6.13;;;10.40;99.90;;;;;;5002719;28;20061;-67
2022/10/31 03:11:57;;;;;;;15.98;6.35;;;10.40;99.90;;;;;;5005606;28;20133;-67
2022/10/31 03:14:36;;;;;;;18.38;7.75;;;10.40;99.90;;;;;;5004485;28;20019;-68
2022/10/31 03:17:07;;;;;;;21.40;6.32;;;10.40;99.90;;;;;;5005599;28;20022;-68
2022/10/31 03:19:42;;;;;;;14.35;5.72;;;10.40;99.90;;;;;;5011355;28;20037;-69
2022/10/31 03:22:22;;;;;;;19.58;6.22;;;10.40;99.90;;;;;;5011531;28;20022;-67
2022/10/31 03:24:51;;;;;;;11.50;5.75;;;10.50;99.90;;;;;;5011571;28;20034;-68
2022/10/31 03:27:22;;;;;;;13.57;7.07;;;10.50;99.90;;;;;;5005403;28;20085;-67
2022/10/31 03:29:50;;;;;;;15.65;5.70;;;10.60;99.90;;;;;;5010947;28;20091;-67
2022/10/31 03:32:22;;;;;;;13.00;5.63;;;10.60;99.90;;;;;;5006931;28;20491;-68
2022/10/31 03:34:49;;;;;;;14.63;5.88;;;10.50;99.90;;;;;;5010457;28;20044;-67
2022/10/31 03:37:18;;;;;;;11.98;6.45;;;10.50;99.90;;;;;;5001454;28;20018;-66
2022/10/31 03:39:47;;;;;;;11.85;6.22;;;10.50;99.90;;;;;;5004651;28;20068;-67
2022/10/31 03:42:25;;;;;;;21.83;6.68;;;10.40;99.90;;;;;;5006594;28;20022;-67
2022/10/31 03:45:06;;;;;;;13.13;6.65;;;10.40;99.90;;;;;;5008591;28;20026;-67
2022/10/31 03:47:33;;;;;;;14.05;6.35;;;10.40;99.90;;;;;;4989854;28;20117;-68
2022/10/31 03:49:59;;;;;;;13.32;5.70;;;10.40;99.90;;;;;;4995481;28;20052;-68
2022/10/31 03:52:33;;;;;;;21.40;6.18;;;10.30;99.90;;;;;;5006654;28;20121;-68
2022/10/31 03:55:02;;;;;;;;;;;10.40;99.90;;;;;;5007172;28;20037;-68
2022/10/31 03:57:45;;;;;;;12.25;4.85;;;10.40;99.90;;;;;;4998117;28;19913;-66
2022/10/31 04:00:13;;;;;;;19.15;5.90;;;10.30;99.90;;;;;;5007045;28;20032;-68
2022/10/31 04:02:47;;;;;;;13.90;6.22;;;10.30;99.90;;;;;;5003504;28;20155;-68
2022/10/31 04:05:15;;;;;;;17.38;5.50;;;10.30;99.90;;;;;;5008659;28;20038;-68
2022/10/31 04:07:45;;;;;;;15.40;6.28;;;10.30;99.90;;;;;;5004214;28;20587;-68
2022/10/31 04:10:14;;;;;;;15.73;6.90;;;10.30;99.90;;;;;;4999366;28;20409;-67
2022/10/31 04:12:41;;;;;;;13.50;5.93;;;10.40;99.90;;;;;;5004605;28;20022;-68
2022/10/31 04:15:09;;;;;;;13.05;5.80;;;10.30;99.90;;;;;;5008777;28;20107;-67
2022/10/31 04:17:39;;;;;;;14.95;6.35;;;10.30;99.90;;;;;;5008453;28;20022;-68
2022/10/31 04:20:05;;;;;;;12.30;6.38;;;10.30;99.90;;;;;;5009826;28;20049;-68
2022/10/31 04:22:31;;;;;;;12.80;5.82;;;10.20;99.90;;;;;;5006867;28;20030;-67
2022/10/31 04:24:57;;;;;;;13.10;6.28;;;10.20;99.90;;;;;;5006031;28;20379;-67
2022/10/31 04:27:22;;;;;;;10.93;6.13;;;10.20;99.90;;;;;;5003797;28;20022;-68
2022/10/31 04:29:48;;;;;;;12.23;7.18;;;10.20;99.90;;;;;;5005483;28;20061;-67
2022/10/31 04:32:13;;;;;;;17.15;6.93;;;10.10;99.90;;;;;;5006678;28;20129;-67
2022/10/31 04:34:39;;;;;;;12.13;6.20;;;10.20;99.90;;;;;;5003661;28;20026;-68
2022/10/31 04:37:05;;;;;;;16.92;6.70;;;10.10;99.90;;;;;;5004847;28;20454;-68
2022/10/31 04:39:30;;;;;;;14.57;7.10;;;10.00;99.90;;;;;;5004006;28;20022;-67
2022/10/31 04:41:56;;;;;;;22.27;6.68;;;10.00;99.90;;;;;;5006694;28;20105;-69
2022/10/31 04:44:21;;;;;;;16.67;6.30;;;9.90;99.90;;;;;;5009258;28;20056;-68
2022/10/31 04:46:47;;;;;;;17.75;6.63;;;9.80;99.90;;;;;;5001465;28;20030;-67
2022/10/31 04:49:12;;;;;;;14.65;6.65;;;9.80;99.90;;;;;;4993999;28;20133;-67
2022/10/31 04:51:38;;;;;;;16.85;7.22;;;9.80;99.90;;;;;;5007395;28;20022;-68
2022/10/31 04:54:04;;;;;;;19.33;6.93;;;9.80;99.90;;;;;;5007983;28;20450;-68
2022/10/31 04:56:30;;;;;;;17.67;7.07;;;9.70;99.90;;;;;;5016873;28;20072;-68
2022/10/31 04:58:55;;;;;;;16.02;7.32;;;9.70;99.90;;;;;;5008839;28;20034;-68
2022/10/31 05:01:21;;;;;;;21.65;6.78;;;9.70;99.90;;;;;;5004776;28;20216;-68
2022/10/31 05:03:47;;;;;;;13.65;6.72;;;9.80;99.90;;;;;;5006465;28;20034;-68
2022/10/31 05:06:12;;;;;;;12.98;6.13;;;9.90;99.90;;;;;;5007551;28;20407;-68
2022/10/31 05:08:38;;;;;;;21.88;7.57;;;9.90;99.90;;;;;;5005624;28;20026;-68
2022/10/31 05:11:04;;;;;;;13.88;6.18;;;9.90;99.90;;;;;;5006005;28;20042;-67
2022/10/31 05:13:30;;;;;;;14.00;6.32;;;9.80;99.90;;;;;;5006920;28;20030;-68
2022/10/31 05:15:56;;;;;;;18.40;6.78;;;9.80;99.90;;;;;;5003938;28;20053;-68
2022/10/31 05:18:21;;;;;;;14.32;6.60;;;9.70;99.90;;;;;;5002259;28;20050;-68
2022/10/31 05:20:47;;;;;;;24.23;6.75;;;9.70;99.90;;;;;;5023985;28;20045;-68
2022/10/31 05:23:13;;;;;;;15.45;6.28;;;9.80;99.90;;;;;;5008616;28;20117;-68
2022/10/31 05:25:40;;;;;;;12.30;6.60;;;9.80;99.90;;;;;;5009621;28;20054;-68
2022/10/31 05:28:06;;;;;;;18.05;6.50;;;9.80;99.90;;;;;;5007981;28;20038;-68
2022/10/31 05:30:33;;;;;;;24.20;6.80;;;9.90;99.90;;;;;;5001487;28;20026;-68
2022/10/31 05:32:59;;;;;;;21.70;6.95;;;9.90;99.90;;;;;;5005389;28;20088;-67
2022/10/31 05:35:31;;;;;;;17.38;8.07;;;9.80;99.90;;;;;;5003208;28;20120;-68
2022/10/31 05:37:57;;;;;;;17.27;8.30;;;9.80;99.90;;;;;;5001789;28;20113;-68
2022/10/31 05:40:24;;;;;;;16.90;8.40;;;9.90;99.90;;;;;;5004680;28;20106;-68
2022/10/31 05:42:55;;;;;;;16.50;8.25;;;9.90;99.90;;;;;;5002729;28;20030;-68
2022/10/31 05:45:21;;;;;;;23.55;8.30;;;10.00;99.90;;;;;;5008429;28;20022;-68
2022/10/31 05:47:56;;;;;;;18.95;7.63;;;10.00;99.90;;;;;;5006565;28;20033;-67
2022/10/31 05:50:22;;;;;;;21.48;7.43;;;9.90;99.90;;;;;;4985391;28;20390;-67
2022/10/31 05:52:57;;;;;;;23.13;7.68;;;9.90;99.90;;;;;;5002843;28;20088;-68
2022/10/31 05:55:24;;;;;;;16.25;7.75;;;9.80;99.90;;;;;;5011679;28;20022;-68
2022/10/31 05:57:50;;;;;;;27.38;7.78;;;9.80;99.90;;;;;;5001220;28;20022;-68
2022/10/31 06:00:16;;;;;;;16.20;7.55;;;9.70;99.90;;;;;;5008222;28;20145;-68
2022/10/31 06:02:41;;;;;;;18.45;8.07;;;9.70;99.90;;;;;;5006565;28;20041;-68
2022/10/31 06:05:07;;;;;;;21.67;7.55;;;9.80;99.90;;;;;;5003576;28;20030;-68
2022/10/31 06:07:34;;;;;;;16.35;7.38;;;9.80;99.90;;;;;;5007647;28;20042;-68
2022/10/31 06:10:00;;;;;;;13.18;6.97;;;9.80;99.90;;;;;;5006378;28;20034;-68
2022/10/31 06:12:26;;;;;;;13.48;7.25;;;9.80;99.90;;;;;;5009421;28;20156;-67
2022/10/31 06:14:52;;;;;;;15.57;6.47;;;9.90;99.90;;;;;;5012176;28;20105;-68
2022/10/31 06:17:17;;;;;;;14.05;6.32;;;9.90;99.90;;;;;;5012368;28;20034;-68
2022/10/31 06:19:43;;;;;;;21.63;6.47;;;9.90;99.90;;;;;;5011629;28;20033;-68
2022/10/31 06:22:10;;;;;;;16.70;6.80;;;9.80;99.90;;;;;;5011387;28;20022;-68
2022/10/31 06:24:36;;;;;;;20.90;6.90;;;9.80;99.90;;;;;;5013124;28;20026;-68
2022/10/31 06:27:02;;;;;;;21.33;6.70;;;9.80;99.90;;;;;;5004073;28;20424;-68
2022/10/31 06:29:27;;;;;;;17.98;6.75;;;9.80;99.90;;;;;;5010147;28;20030;-68
2022/10/31 06:31:53;;;;;;;13.00;6.57;;;9.70;99.90;;;;;;5008165;28;20374;-68
2022/10/31 06:34:18;;;;;;;24.10;8.15;;;9.80;99.90;;;;;;5010650;28;20100;-68
2022/10/31 06:36:46;;;;;;;17.30;6.78;;;9.90;99.90;;;;;;5003066;28;20034;-68
2022/10/31 06:39:11;;;;;;;14.13;7.57;;;9.80;99.90;;;;;;5000181;28;20555;-68
2022/10/31 06:41:37;;;;;;;22.63;7.47;;;9.90;99.90;;;;;;5002038;28;20030;-68
2022/10/31 06:44:03;;;;;;;25.27;8.27;;;9.90;99.90;;;;;;5013126;28;20455;-68
2022/10/31 06:46:28;;;;;;;22.58;7.00;;;10.00;99.90;;;;;;5010449;28;20056;-68
2022/10/31 06:48:54;;;;;;;14.95;7.13;;;10.10;99.90;;;;;;4997288;23;20053;-63
2022/10/31 06:51:19;;;;;;;15.52;6.65;;;10.20;99.90;;;;;;5023320;28;20026;-63
2022/10/31 06:53:45;;;;;;;13.65;5.85;;;10.30;99.90;;;;;;5023115;28;20205;-63
2022/10/31 06:56:10;;;;;;;21.45;6.75;;;10.30;99.90;;;;;;5013655;28;20044;-63
2022/10/31 06:58:36;;;;;;;14.05;6.15;;;10.40;99.90;;;;;;5023370;28;20472;-62
2022/10/31 07:01:01;;;;;;;15.60;6.13;;;10.40;99.90;;;;;;5029723;28;20484;-64
2022/10/31 07:03:27;;;;;;;10.63;5.85;;;10.50;99.90;;;;;;5029045;28;20515;-64
2022/10/31 07:05:56;;;;;;;17.90;6.72;;;10.60;99.90;;;;;;5013640;28;20040;-63
2022/10/31 07:08:22;;;;;;;15.48;6.15;;;10.60;99.90;;;;;;5028624;28;20396;-64
2022/10/31 07:10:52;;;;;;;13.43;6.30;;;10.50;99.90;;;;;;5013868;28;20400;-64
2022/10/31 07:13:18;;;;;;;16.70;6.35;;;10.60;99.90;;;;;;5009439;28;20033;-64
2022/10/31 07:15:44;;;;;;;11.13;6.70;;;10.70;99.90;;;;;;5028261;28;20032;-65
2022/10/31 07:18:11;;;;;;;13.88;6.60;;;10.80;99.90;;;;;;5028617;28;20029;-65
2022/10/31 07:20:37;;;;;;;14.77;6.10;;;10.90;99.90;;;;;;5030290;28;20396;-65
2022/10/31 07:23:03;;;;;;;11.75;6.40;;;10.90;99.90;;;;;;5030390;28;20025;-65
2022/10/31 07:25:29;;;;;;;10.27;5.32;;;11.00;99.90;;;;;;5031397;28;20444;-65
2022/10/31 07:27:55;;;;;;;15.88;6.05;;;11.00;99.90;;;;;;5030072;28;20087;-64
2022/10/31 07:30:21;;;;;;;11.93;5.88;;;11.00;99.90;;;;;;5029802;28;20017;-65
2022/10/31 07:32:48;;;;;;;11.63;5.63;;;11.00;99.90;;;;;;5027502;28;20532;-64
2022/10/31 07:35:19;;;;;;;13.40;6.47;;;11.10;99.90;;;;;;5030208;28;20056;-64
2022/10/31 07:37:45;;;;;;;14.45;5.78;;;11.20;99.90;;;;;;5030449;28;20469;-64
2022/10/31 07:40:11;;;;;;;11.45;5.50;;;11.40;99.90;;;;;;5028372;28;20034;-64
2022/10/31 07:42:42;;;;;;;15.25;6.40;;;11.50;99.90;;;;;;5030235;28;20026;-66
2022/10/31 07:45:10;;;;;;;10.27;5.75;;;11.50;99.90;;;;;;5031006;28;20036;-64
2022/10/31 07:47:39;;;;;;;18.67;6.97;;;11.50;99.90;;;;;;5027685;28;20025;-64
2022/10/31 07:50:05;;;;;;;12.55;6.22;;;11.60;99.90;;;;;;5009279;28;20566;-65
2022/10/31 07:52:31;;;;;;;12.95;6.18;;;11.60;99.90;;;;;;5030054;28;20029;-65
2022/10/31 07:54:56;;;;;;;12.60;6.35;;;11.70;99.90;;;;;;5035320;28;20104;-64
2022/10/31 07:57:22;;;;;;;15.32;6.90;;;11.90;99.90;;;;;;5012133;28;20017;-65
2022/10/31 07:59:47;;;;;;;20.55;7.63;;;12.00;99.90;;;;;;5029072;28;20563;-64
2022/10/31 08:02:13;;;;;;;13.32;6.85;;;11.90;99.90;;;;;;5028052;28;20033;-64
2022/10/31 08:04:38;;;;;;;21.95;8.18;;;12.00;99.90;;;;;;5025247;28;20116;-64
2022/10/31 08:07:04;;;;;;;17.48;7.53;;;12.00;99.90;;;;;;4979450;28;20033;-65
2022/10/31 08:09:30;;;;;;;11.15;6.93;;;12.20;99.90;;;;;;5011159;28;20041;-64
2022/10/31 08:11:55;;;;;;;16.02;6.93;;;12.30;99.90;;;;;;5009138;28;20040;-64
2022/10/31 08:14:22;;;;;;;19.50;8.52;;;12.50;99.90;;;;;;5007435;28;20033;-64
2022/10/31 08:16:47;;;;;;;18.10;7.65;;;12.60;99.90;;;;;;5009141;28;20014;-65
2022/10/31 08:19:13;;;;;;;12.60;6.43;;;12.80;99.90;;;;;;4993978;28;20030;-65
2022/10/31 08:21:39;;;;;;;15.00;6.80;;;12.90;99.90;;;;;;5010944;28;20048;-63
2022/10/31 08:24:05;;;;;;;18.65;6.18;;;13.10;99.90;;;;;;5011455;28;20026;-63
2022/10/31 08:26:30;;;;;;;13.85;6.13;;;13.10;99.90;;;;;;5008197;28;20056;-64
2022/10/31 08:28:56;;;;;;;20.52;8.60;;;13.20;99.90;;;;;;5011208;28;20029;-65
2022/10/31 08:31:22;;;;;;;16.52;7.18;;;13.30;99.90;;;;;;5010512;28;20021;-64
2022/10/31 08:33:48;;;;;;;13.15;7.35;;;13.50;99.90;;;;;;4987544;28;20041;-65
2022/10/31 08:36:14;;;;;;;15.90;7.40;;;13.60;99.90;;;;;;5003386;28;20034;-64
2022/10/31 08:38:39;;;;;;;21.83;6.13;;;13.70;99.90;;;;;;5010815;28;20481;-65
2022/10/31 08:41:05;;;;;;;16.27;6.28;;;13.90;99.90;;;;;;5008053;28;20026;-63
2022/10/31 08:43:30;;;;;;;18.10;7.18;;;14.00;99.90;;;;;;5010244;28;20116;-65
2022/10/31 08:45:56;;;;;;;14.45;6.20;;;14.10;99.90;;;;;;5009679;28;20034;-64
2022/10/31 08:48:22;;;;;;;18.98;6.97;;;14.20;99.90;;;;;;5008713;28;20038;-64
2022/10/31 08:50:47;;;;;;;11.45;5.30;;;14.20;99.90;;;;;;4990172;28;20055;-64
2022/10/31 08:53:18;;;;;;;15.43;6.90;;;14.20;99.90;;;;;;5006752;28;20025;-64
2022/10/31 08:55:45;;;;;;;12.95;6.28;;;14.30;99.90;;;;;;5009828;28;20037;-63
2022/10/31 08:58:13;;;;;;;11.15;5.47;;;14.30;99.90;;;;;;5010397;28;20417;-64
2022/10/31 09:00:39;;;;;;;10.70;6.05;;;14.10;99.90;;;;;;5005262;28;20037;-64
2022/10/31 09:03:08;;;;;;;11.18;6.05;;;14.20;99.90;;;;;;5008229;28;20030;-65
2022/10/31 09:05:34;;;;;;;9.88;5.97;;;14.10;99.90;;;;;;5008121;28;20143;-64
2022/10/31 09:08:01;;;;;;;19.90;6.00;;;14.00;99.90;;;;;;5008769;28;20488;-64
2022/10/31 09:10:29;;;;;;;10.13;6.22;;;14.10;99.90;;;;;;5007491;28;20501;-64
2022/10/31 09:12:59;;;;;;;28.73;12.45;;;14.20;99.90;;;;;;5009735;28;20033;-64
2022/10/31 09:15:26;;;;;;;32.42;13.85;;;14.30;99.90;;;;;;5009754;28;20022;-64
2022/10/31 09:17:52;;;;;;;18.70;8.15;;;14.50;99.90;;;;;;5006734;28;20026;-65
2022/10/31 09:20:19;;;;;;;17.05;7.60;;;14.50;99.90;;;;;;5007568;28;20096;-64
2022/10/31 09:22:44;;;;;;;13.32;7.05;;;14.60;99.90;;;;;;5009206;28;20667;-64
2022/10/31 09:25:10;;;;;;;18.55;7.20;;;14.60;99.90;;;;;;5006414;28;20022;-64
2022/10/31 09:27:36;;;;;;;9.50;6.57;;;14.70;99.90;;;;;;5008971;28;20030;-64
2022/10/31 09:30:02;;;;;;;11.43;7.72;;;14.60;99.90;;;;;;5009841;28;20029;-65
2022/10/31 09:32:27;;;;;;;14.45;8.40;;;14.60;99.90;;;;;;5008718;28;20027;-65
2022/10/31 09:34:53;;;;;;;15.93;7.88;;;14.70;99.90;;;;;;5009037;28;20027;-65
2022/10/31 09:37:18;;;;;;;16.90;7.53;;;14.80;99.90;;;;;;4985373;28;20212;-65
2022/10/31 09:39:44;;;;;;;20.73;7.97;;;14.90;99.90;;;;;;5008344;28;20071;-64
2022/10/31 09:42:18;;;;;;;15.85;6.88;;;15.10;99.90;;;;;;5006827;28;20033;-65
2022/10/31 09:44:51;;;;;;;14.18;7.03;;;15.40;99.90;;;;;;5000724;28;20087;-64
2022/10/31 09:47:17;;;;;;;22.00;7.63;;;15.60;99.90;;;;;;5008905;28;20026;-65
2022/10/31 09:50:00;;;;;;;14.85;6.70;;;15.80;99.90;;;;;;5009535;28;20057;-64
2022/10/31 09:52:32;;;;;;;15.13;6.77;;;16.00;99.90;;;;;;5028224;28;20117;-64
2022/10/31 09:55:08;;;;;;;14.35;5.43;;;16.20;99.90;;;;;;5028563;28;20295;-65
2022/10/31 09:57:36;;;;;;;10.93;5.57;;;16.40;99.90;;;;;;5027215;28;20053;-64
2022/10/31 10:00:05;;;;;;;12.40;5.97;;;16.50;99.90;;;;;;5026978;28;20405;-65
2022/10/31 10:02:53;;;;;;;12.75;5.72;;;16.60;99.90;;;;;;5027903;28;20030;-63
2022/10/31 10:05:32;;;;;;;14.70;6.03;;;16.80;99.90;;;;;;5025373;28;20045;-64
2022/10/31 10:08:11;;;;;;;11.13;5.93;;;17.00;99.90;;;;;;5024858;28;20030;-65
2022/10/31 10:11:05;;;;;;;16.17;5.25;;;17.10;99.90;;;;;;5028399;28;20028;-65
2022/10/31 10:13:39;;;;;;;12.40;5.70;;;17.30;99.90;;;;;;5028334;28;20484;-65
2022/10/31 10:16:24;;;;;;;10.10;5.22;;;17.30;99.90;;;;;;5028431;28;20025;-65
2022/10/31 10:19:19;;;;;;;14.73;5.63;;;17.30;99.90;;;;;;5023811;28;20029;-65
2022/10/31 10:21:51;;;;;;;9.93;5.15;;;17.20;99.90;;;;;;5028450;28;20020;-64
2022/10/31 10:24:53;;;;;;;19.95;5.28;;;17.30;99.90;;;;;;5027778;28;20613;-65
2022/10/31 10:27:46;;;;;;;16.30;6.45;;;17.30;99.90;;;;;;5024936;28;20041;-64
2022/10/31 10:30:17;;;;;;;10.80;4.93;;;17.20;99.90;;;;;;5034626;28;20031;-64
2022/10/31 10:32:52;;;;;;;18.85;5.60;;;17.20;99.90;;;;;;5024267;28;20026;-65
2022/10/31 10:35:38;;;;;;;18.35;6.32;;;17.20;99.90;;;;;;5024492;28;20022;-65
2022/10/31 10:38:41;;;;;;;9.80;5.40;;;17.10;99.90;;;;;;5027568;28;20025;-64
2022/10/31 10:41:16;;;;;;;14.98;6.07;;;17.10;99.90;;;;;;5028739;28;20082;-64
2022/10/31 10:43:42;;;;;;;14.55;6.43;;;17.00;99.90;;;;;;5016386;28;20041;-63
2022/10/31 10:49:04;;;;;;;11.75;5.20;;;16.90;99.90;;;;;;5029154;28;20072;-63
2022/10/31 10:51:37;;;;;;;15.52;6.57;;;17.00;99.90;;;;;;4997449;28;20048;-64
2022/10/31 10:54:26;;;;;;;22.85;7.07;;;16.90;99.90;;;;;;5022931;28;20061;-64
2022/10/31 10:57:11;;;;;;;18.45;5.68;;;17.00;99.90;;;;;;5024114;28;20132;-64
2022/10/31 10:59:37;;;;;;;16.55;5.53;;;17.00;99.90;;;;;;5026909;28;20083;-63
2022/10/31 11:02:15;;;;;;;17.70;6.93;;;17.00;99.90;;;;;;5025085;28;20030;-65
2022/10/31 11:04:41;;;;;;;11.88;6.03;;;17.10;99.90;;;;;;5025352;28;20041;-64
2022/10/31 11:07:09;;;;;;;7.90;4.28;;;17.20;99.90;;;;;;5023140;28;20107;-64
2022/10/31 11:09:35;;;;;;;12.88;5.30;;;17.30;99.90;;;;;;5031783;28;20029;-64
2022/10/31 11:12:17;;;;;;;13.15;4.65;;;17.50;99.90;;;;;;5027788;28;20029;-64
2022/10/31 11:14:59;;;;;;;13.27;4.43;;;17.70;99.90;;;;;;5028964;28;20048;-65
2022/10/31 11:17:33;;;;;;;13.00;5.07;;;18.00;99.90;;;;;;5021670;28;20033;-64
2022/10/31 11:20:19;;;;;;;12.50;4.93;;;18.10;99.90;;;;;;5020943;28;20029;-64
2022/10/31 11:22:46;;;;;;;9.18;4.85;;;18.30;99.90;;;;;;5016152;28;20029;-65
2022/10/31 11:25:26;;;;;;;14.00;4.97;;;18.30;99.90;;;;;;5026970;28;20548;-64
2022/10/31 11:28:03;;;;;;;9.57;4.28;;;18.40;99.90;;;;;;5033284;28;20400;-64
2022/10/31 11:30:30;;;;;;;13.93;4.07;;;18.60;99.90;;;;;;5031417;28;20025;-64
2022/10/31 11:32:57;;;;;;;12.27;4.93;;;18.70;99.90;;;;;;5031537;28;20025;-65
2022/10/31 11:35:25;;;;;;;8.55;4.50;;;18.70;99.90;;;;;;5030192;28;20064;-65
2022/10/31 11:37:53;;;;;;;13.85;4.88;;;18.70;99.90;;;;;;5023121;28;20108;-65
2022/10/31 11:40:22;;;;;;;16.75;5.47;;;18.60;99.90;;;;;;5030745;28;20492;-65
2022/10/31 11:42:49;;;;;;;10.82;4.72;;;18.60;99.90;;;;;;5027642;28;20049;-65
2022/10/31 11:45:30;;;;;;;10.80;3.92;;;18.60;99.90;;;;;;5026770;28;20461;-65
2022/10/31 11:47:57;;;;;;;15.77;5.32;;;18.50;99.90;;;;;;5031386;28;20116;-65
2022/10/31 11:50:40;;;;;;;12.82;4.82;;;18.50;99.90;;;;;;4994329;28;20552;-65
2022/10/31 11:53:17;;;;;;;12.40;4.68;;;18.40;99.90;;;;;;5029585;28;20017;-65
2022/10/31 11:55:45;;;;;;;12.55;4.93;;;18.40;99.90;;;;;;5020663;28;20451;-65
2022/10/31 11:58:22;;;;;;;13.73;5.03;;;18.40;99.90;;;;;;5028634;28;20036;-64
2022/10/31 12:00:53;;;;;;;12.68;4.35;;;18.50;99.90;;;;;;5014427;28;20034;-65
2022/10/31 12:03:22;;;;;;;9.82;4.28;;;18.50;99.90;;;;;;5030097;28;20532;-65
2022/10/31 12:06:03;;;;;;;7.60;3.70;;;18.60;99.90;;;;;;5026961;28;20052;-64
2022/10/31 12:08:33;;;;;;;10.93;3.72;;;18.60;99.90;;;;;;5028244;28;20022;-64
2022/10/31 12:11:14;;;;;;;15.30;5.10;;;18.70;99.90;;;;;;5030773;28;20032;-64
2022/10/31 12:14:06;;;;;;;11.60;4.00;;;18.70;99.90;;;;;;5025464;28;20146;-64
2022/10/31 12:16:44;;;;;;;8.48;3.92;;;18.70;99.90;;;;;;5011811;28;20481;-65
2022/10/31 12:19:19;;;;;;;12.52;3.72;;;18.70;99.90;;;;;;5011091;28;20033;-65
2022/10/31 12:22:17;;;;;;;8.32;3.33;;;18.70;99.90;;;;;;5022331;28;20030;-65
2022/10/31 12:25:09;;;;;;;12.27;4.57;;;18.70;99.90;;;;;;5015106;28;20104;-65
2022/10/31 12:27:49;;;;;;;11.88;3.65;;;18.70;99.90;;;;;;5013793;28;20112;-65
2022/10/31 12:30:49;;;;;;;13.50;4.30;;;18.80;99.90;;;;;;5030197;28;20498;-65
2022/10/31 12:33:24;;;;;;;11.02;3.88;;;18.80;99.90;;;;;;5022425;28;20037;-64
2022/10/31 12:35:56;;;;;;;13.43;3.45;;;18.90;99.90;;;;;;5024550;28;20052;-63
2022/10/31 12:38:41;;;;;;;9.40;4.10;;;18.90;99.90;;;;;;5025183;28;20017;-64
2022/10/31 12:41:32;;;;;;;9.57;3.55;;;18.90;99.90;;;;;;5029144;28;20037;-65
2022/10/31 12:44:21;;;;;;;19.10;4.15;;;18.90;99.90;;;;;;5029217;28;20119;-64
2022/10/31 12:47:09;;;;;;;15.00;4.95;;;18.90;99.90;;;;;;5027646;28;20493;-64
2022/10/31 12:49:49;;;;;;;18.75;4.05;;;18.90;99.90;;;;;;4990073;28;20044;-64
2022/10/31 12:52:49;;;;;;;7.25;3.60;;;18.90;99.90;;;;;;5015482;28;20048;-63
2022/10/31 12:55:39;;;;;;;7.88;3.05;;;19.00;99.90;;;;;;5031319;28;20040;-64
2022/10/31 12:58:16;;;;;;;5.13;2.95;;;19.00;99.90;;;;;;5027243;28;20028;-64
2022/10/31 13:00:45;;;;;;;5.03;3.15;;;19.00;99.90;;;;;;5028818;28;20064;-64
2022/10/31 13:03:14;;;;;;;9.93;3.90;;;18.90;99.90;;;;;;5029946;28;20096;-64